sensor_id;sensor_type;location;lat;lon;timestamp;P1;durP1;ratioP1;P2;durP2;ratioP2
24467;SDS011;12634;50.852;5.676;2023-03-01T00:01:35;9.40;;;5.75;;
24467;SDS011;12634;50.852;5.676;2023-03-01T00:04:02;9.05;;;6.00;;
24467;SDS011;12634;50.852;5.676;2023-03-01T00:06:29;9.43;;;5.63;;
24467;SDS011;12634;50.852;5.676;2023-03-01T00:08:56;10.95;;;5.65;;
24467;SDS011;12634;50.852;5.676;2023-03-01T00:11:25;9.98;;;5.90;;
24467;SDS011;12634;50.852;5.676;2023-03-01T00:13:54;9.60;;;5.80;;
24467;SDS011;12634;50.852;5.676;2023-03-01T00:16:24;10.60;;;5.90;;
24467;SDS011;12634;50.852;5.676;2023-03-01T00:18:53;10.73;;;6.30;;
24467;SDS011;12634;50.852;5.676;2023-03-01T00:21:21;9.40;;;6.43;;
24467;SDS011;12634;50.852;5.676;2023-03-01T00:23:49;12.82;;;6.60;;
24467;SDS011;12634;50.852;5.676;2023-03-01T00:26:16;10.15;;;6.10;;
24467;SDS011;12634;50.852;5.676;2023-03-01T00:28:46;12.40;;;6.97;;
24467;SDS011;12634;50.852;5.676;2023-03-01T00:31:15;11.02;;;5.82;;
24467;SDS011;12634;50.852;5.676;2023-03-01T00:33:44;11.25;;;8.07;;
24467;SDS011;12634;50.852;5.676;2023-03-01T00:36:12;11.73;;;6.53;;
24467;SDS011;12634;50.852;5.676;2023-03-01T00:38:42;10.60;;;6.18;;
24467;SDS011;12634;50.852;5.676;2023-03-01T00:41:11;9.55;;;6.45;;
24467;SDS011;12634;50.852;5.676;2023-03-01T00:43:39;10.18;;;6.15;;
24467;SDS011;12634;50.852;5.676;2023-03-01T00:46:08;10.85;;;6.68;;
24467;SDS011;12634;50.852;5.676;2023-03-01T00:48:37;9.25;;;6.72;;
24467;SDS011;12634;50.852;5.676;2023-03-01T00:51:05;9.90;;;6.15;;
24467;SDS011;12634;50.852;5.676;2023-03-01T00:53:33;8.48;;;5.72;;
24467;SDS011;12634;50.852;5.676;2023-03-01T00:56:01;10.27;;;6.18;;
24467;SDS011;12634;50.852;5.676;2023-03-01T00:58:29;10.63;;;6.15;;
24467;SDS011;12634;50.852;5.676;2023-03-01T01:00:56;10.35;;;6.25;;
24467;SDS011;12634;50.852;5.676;2023-03-01T01:03:25;11.65;;;6.47;;
24467;SDS011;12634;50.852;5.676;2023-03-01T01:05:52;10.02;;;6.28;;
24467;SDS011;12634;50.852;5.676;2023-03-01T01:08:20;10.20;;;6.47;;
24467;SDS011;12634;50.852;5.676;2023-03-01T01:10:47;10.63;;;6.55;;
24467;SDS011;12634;50.852;5.676;2023-03-01T01:13:14;10.38;;;6.65;;
24467;SDS011;12634;50.852;5.676;2023-03-01T01:15:41;12.40;;;6.15;;
24467;SDS011;12634;50.852;5.676;2023-03-01T01:18:08;9.30;;;6.20;;
24467;SDS011;12634;50.852;5.676;2023-03-01T01:20:37;10.80;;;6.60;;
24467;SDS011;12634;50.852;5.676;2023-03-01T01:23:05;9.05;;;5.72;;
24467;SDS011;12634;50.852;5.676;2023-03-01T01:25:34;11.13;;;6.70;;
24467;SDS011;12634;50.852;5.676;2023-03-01T01:28:02;11.20;;;7.57;;
24467;SDS011;12634;50.852;5.676;2023-03-01T01:30:29;12.43;;;6.70;;
24467;SDS011;12634;50.852;5.676;2023-03-01T01:32:56;10.80;;;6.82;;
24467;SDS011;12634;50.852;5.676;2023-03-01T01:35:24;9.73;;;6.57;;
24467;SDS011;12634;50.852;5.676;2023-03-01T01:37:52;11.60;;;6.78;;
24467;SDS011;12634;50.852;5.676;2023-03-01T01:40:19;10.40;;;6.70;;
24467;SDS011;12634;50.852;5.676;2023-03-01T01:42:47;10.15;;;6.75;;
24467;SDS011;12634;50.852;5.676;2023-03-01T01:45:31;10.48;;;6.43;;
24467;SDS011;12634;50.852;5.676;2023-03-01T01:48:00;11.13;;;6.55;;
24467;SDS011;12634;50.852;5.676;2023-03-01T01:50:30;11.45;;;6.82;;
24467;SDS011;12634;50.852;5.676;2023-03-01T01:53:05;9.63;;;6.45;;
24467;SDS011;12634;50.852;5.676;2023-03-01T01:55:36;10.18;;;6.43;;
24467;SDS011;12634;50.852;5.676;2023-03-01T01:58:07;10.50;;;5.78;;
24467;SDS011;12634;50.852;5.676;2023-03-01T02:00:37;8.55;;;6.63;;
24467;SDS011;12634;50.852;5.676;2023-03-01T02:03:06;12.55;;;6.95;;
24467;SDS011;12634;50.852;5.676;2023-03-01T02:05:37;11.73;;;7.18;;
24467;SDS011;12634;50.852;5.676;2023-03-01T02:08:12;8.88;;;6.13;;
24467;SDS011;12634;50.852;5.676;2023-03-01T02:10:40;9.82;;;6.53;;
24467;SDS011;12634;50.852;5.676;2023-03-01T02:13:08;10.75;;;6.97;;
24467;SDS011;12634;50.852;5.676;2023-03-01T02:15:37;14.35;;;6.90;;
24467;SDS011;12634;50.852;5.676;2023-03-01T02:18:05;10.75;;;6.10;;
24467;SDS011;12634;50.852;5.676;2023-03-01T02:20:34;11.98;;;6.78;;
24467;SDS011;12634;50.852;5.676;2023-03-01T02:23:12;9.65;;;6.22;;
24467;SDS011;12634;50.852;5.676;2023-03-01T02:25:43;9.73;;;6.25;;
24467;SDS011;12634;50.852;5.676;2023-03-01T02:28:22;9.15;;;6.53;;
24467;SDS011;12634;50.852;5.676;2023-03-01T02:30:51;9.82;;;6.60;;
24467;SDS011;12634;50.852;5.676;2023-03-01T02:33:38;10.82;;;6.47;;
24467;SDS011;12634;50.852;5.676;2023-03-01T02:36:06;11.32;;;6.93;;
24467;SDS011;12634;50.852;5.676;2023-03-01T02:38:38;10.07;;;7.70;;
24467;SDS011;12634;50.852;5.676;2023-03-01T02:41:06;10.43;;;6.50;;
24467;SDS011;12634;50.852;5.676;2023-03-01T02:43:36;11.25;;;6.88;;
24467;SDS011;12634;50.852;5.676;2023-03-01T02:46:05;10.73;;;6.28;;
24467;SDS011;12634;50.852;5.676;2023-03-01T02:48:43;13.10;;;6.82;;
24467;SDS011;12634;50.852;5.676;2023-03-01T02:54:16;9.50;;;6.43;;
24467;SDS011;12634;50.852;5.676;2023-03-01T02:56:48;11.35;;;7.40;;
24467;SDS011;12634;50.852;5.676;2023-03-01T02:59:18;10.70;;;7.00;;
24467;SDS011;12634;50.852;5.676;2023-03-01T03:01:47;13.73;;;6.53;;
24467;SDS011;12634;50.852;5.676;2023-03-01T03:04:15;10.70;;;6.97;;
24467;SDS011;12634;50.852;5.676;2023-03-01T03:06:44;10.63;;;7.22;;
24467;SDS011;12634;50.852;5.676;2023-03-01T03:09:11;10.10;;;6.40;;
24467;SDS011;12634;50.852;5.676;2023-03-01T03:11:39;10.10;;;7.10;;
24467;SDS011;12634;50.852;5.676;2023-03-01T03:14:08;13.52;;;6.63;;
24467;SDS011;12634;50.852;5.676;2023-03-01T03:16:40;10.52;;;6.78;;
24467;SDS011;12634;50.852;5.676;2023-03-01T03:19:08;11.25;;;7.00;;
24467;SDS011;12634;50.852;5.676;2023-03-01T03:21:35;13.73;;;6.75;;
24467;SDS011;12634;50.852;5.676;2023-03-01T03:24:03;10.10;;;6.78;;
24467;SDS011;12634;50.852;5.676;2023-03-01T03:26:31;11.23;;;7.32;;
24467;SDS011;12634;50.852;5.676;2023-03-01T03:28:58;12.15;;;7.45;;
24467;SDS011;12634;50.852;5.676;2023-03-01T03:31:25;14.50;;;7.60;;
24467;SDS011;12634;50.852;5.676;2023-03-01T03:33:54;14.50;;;7.13;;
24467;SDS011;12634;50.852;5.676;2023-03-01T03:36:23;12.60;;;7.63;;
24467;SDS011;12634;50.852;5.676;2023-03-01T03:38:50;11.32;;;7.10;;
24467;SDS011;12634;50.852;5.676;2023-03-01T03:41:18;9.88;;;7.38;;
24467;SDS011;12634;50.852;5.676;2023-03-01T03:43:45;9.77;;;7.40;;
24467;SDS011;12634;50.852;5.676;2023-03-01T03:46:14;10.95;;;6.97;;
24467;SDS011;12634;50.852;5.676;2023-03-01T03:48:43;10.57;;;6.97;;
24467;SDS011;12634;50.852;5.676;2023-03-01T03:51:13;11.15;;;6.90;;
24467;SDS011;12634;50.852;5.676;2023-03-01T03:53:41;9.23;;;6.95;;
24467;SDS011;12634;50.852;5.676;2023-03-01T03:56:09;10.00;;;6.75;;
24467;SDS011;12634;50.852;5.676;2023-03-01T03:58:37;11.48;;;6.88;;
24467;SDS011;12634;50.852;5.676;2023-03-01T04:01:04;8.77;;;6.93;;
24467;SDS011;12634;50.852;5.676;2023-03-01T04:03:32;10.85;;;7.05;;
24467;SDS011;12634;50.852;5.676;2023-03-01T04:06:00;11.40;;;7.35;;
24467;SDS011;12634;50.852;5.676;2023-03-01T04:08:30;11.88;;;7.53;;
24467;SDS011;12634;50.852;5.676;2023-03-01T04:10:58;13.05;;;7.25;;
24467;SDS011;12634;50.852;5.676;2023-03-01T04:13:47;10.73;;;7.13;;
24467;SDS011;12634;50.852;5.676;2023-03-01T04:16:14;11.35;;;7.63;;
24467;SDS011;12634;50.852;5.676;2023-03-01T04:18:41;10.70;;;6.68;;
24467;SDS011;12634;50.852;5.676;2023-03-01T04:21:09;9.27;;;7.32;;
24467;SDS011;12634;50.852;5.676;2023-03-01T04:23:39;11.55;;;7.40;;
24467;SDS011;12634;50.852;5.676;2023-03-01T04:26:07;11.05;;;7.40;;
24467;SDS011;12634;50.852;5.676;2023-03-01T04:28:35;11.00;;;6.93;;
24467;SDS011;12634;50.852;5.676;2023-03-01T04:31:06;12.98;;;7.30;;
24467;SDS011;12634;50.852;5.676;2023-03-01T04:33:39;9.77;;;6.95;;
24467;SDS011;12634;50.852;5.676;2023-03-01T04:36:08;12.00;;;7.43;;
24467;SDS011;12634;50.852;5.676;2023-03-01T04:38:36;11.30;;;7.80;;
24467;SDS011;12634;50.852;5.676;2023-03-01T04:41:06;10.73;;;7.43;;
24467;SDS011;12634;50.852;5.676;2023-03-01T04:43:35;13.18;;;7.85;;
24467;SDS011;12634;50.852;5.676;2023-03-01T04:46:03;11.07;;;7.47;;
24467;SDS011;12634;50.852;5.676;2023-03-01T04:48:34;12.20;;;7.63;;
24467;SDS011;12634;50.852;5.676;2023-03-01T04:51:02;10.27;;;6.97;;
24467;SDS011;12634;50.852;5.676;2023-03-01T04:53:29;12.13;;;7.70;;
24467;SDS011;12634;50.852;5.676;2023-03-01T04:55:58;12.38;;;7.38;;
24467;SDS011;12634;50.852;5.676;2023-03-01T04:58:27;11.95;;;7.80;;
24467;SDS011;12634;50.852;5.676;2023-03-01T05:00:55;12.55;;;7.35;;
24467;SDS011;12634;50.852;5.676;2023-03-01T05:03:22;12.13;;;8.15;;
24467;SDS011;12634;50.852;5.676;2023-03-01T05:05:50;11.40;;;7.53;;
24467;SDS011;12634;50.852;5.676;2023-03-01T05:08:18;11.45;;;7.72;;
24467;SDS011;12634;50.852;5.676;2023-03-01T05:10:47;17.83;;;8.98;;
24467;SDS011;12634;50.852;5.676;2023-03-01T05:13:16;16.23;;;8.77;;
24467;SDS011;12634;50.852;5.676;2023-03-01T05:15:48;12.25;;;7.97;;
24467;SDS011;12634;50.852;5.676;2023-03-01T05:18:21;11.35;;;7.95;;
24467;SDS011;12634;50.852;5.676;2023-03-01T05:20:51;13.00;;;8.55;;
24467;SDS011;12634;50.852;5.676;2023-03-01T05:23:21;17.55;;;8.77;;
24467;SDS011;12634;50.852;5.676;2023-03-01T05:25:49;13.85;;;8.57;;
24467;SDS011;12634;50.852;5.676;2023-03-01T05:28:17;15.27;;;8.80;;
24467;SDS011;12634;50.852;5.676;2023-03-01T05:30:45;9.65;;;8.00;;
24467;SDS011;12634;50.852;5.676;2023-03-01T05:33:16;10.63;;;7.55;;
24467;SDS011;12634;50.852;5.676;2023-03-01T05:35:44;12.20;;;7.95;;
24467;SDS011;12634;50.852;5.676;2023-03-01T05:38:13;11.98;;;8.38;;
24467;SDS011;12634;50.852;5.676;2023-03-01T05:40:42;13.88;;;8.45;;
24467;SDS011;12634;50.852;5.676;2023-03-01T05:43:11;12.75;;;9.00;;
24467;SDS011;12634;50.852;5.676;2023-03-01T05:45:39;12.23;;;8.80;;
24467;SDS011;12634;50.852;5.676;2023-03-01T05:48:09;13.48;;;8.70;;
24467;SDS011;12634;50.852;5.676;2023-03-01T05:50:38;12.15;;;7.70;;
24467;SDS011;12634;50.852;5.676;2023-03-01T05:53:07;15.57;;;8.48;;
24467;SDS011;12634;50.852;5.676;2023-03-01T05:55:36;12.90;;;8.75;;
24467;SDS011;12634;50.852;5.676;2023-03-01T05:58:05;10.40;;;7.80;;
24467;SDS011;12634;50.852;5.676;2023-03-01T06:00:33;12.07;;;8.45;;
24467;SDS011;12634;50.852;5.676;2023-03-01T06:03:01;12.75;;;8.10;;
24467;SDS011;12634;50.852;5.676;2023-03-01T06:05:30;11.75;;;8.65;;
24467;SDS011;12634;50.852;5.676;2023-03-01T06:07:58;13.32;;;8.77;;
24467;SDS011;12634;50.852;5.676;2023-03-01T06:10:26;12.38;;;7.75;;
24467;SDS011;12634;50.852;5.676;2023-03-01T06:12:53;13.75;;;8.23;;
24467;SDS011;12634;50.852;5.676;2023-03-01T06:15:21;12.25;;;8.80;;
24467;SDS011;12634;50.852;5.676;2023-03-01T06:17:48;13.07;;;8.35;;
24467;SDS011;12634;50.852;5.676;2023-03-01T06:20:16;14.88;;;9.48;;
24467;SDS011;12634;50.852;5.676;2023-03-01T06:22:46;13.35;;;9.15;;
24467;SDS011;12634;50.852;5.676;2023-03-01T06:25:15;12.93;;;9.48;;
24467;SDS011;12634;50.852;5.676;2023-03-01T06:27:44;13.85;;;8.68;;
24467;SDS011;12634;50.852;5.676;2023-03-01T06:30:12;15.48;;;9.40;;
24467;SDS011;12634;50.852;5.676;2023-03-01T06:32:41;14.60;;;9.07;;
24467;SDS011;12634;50.852;5.676;2023-03-01T06:35:09;17.30;;;9.18;;
24467;SDS011;12634;50.852;5.676;2023-03-01T06:37:37;18.08;;;9.45;;
24467;SDS011;12634;50.852;5.676;2023-03-01T06:40:06;12.48;;;9.05;;
24467;SDS011;12634;50.852;5.676;2023-03-01T06:42:36;15.27;;;9.70;;
24467;SDS011;12634;50.852;5.676;2023-03-01T06:45:05;17.48;;;10.32;;
24467;SDS011;12634;50.852;5.676;2023-03-01T06:47:33;16.38;;;10.27;;
24467;SDS011;12634;50.852;5.676;2023-03-01T06:50:01;14.82;;;9.88;;
24467;SDS011;12634;50.852;5.676;2023-03-01T06:52:29;16.85;;;10.55;;
24467;SDS011;12634;50.852;5.676;2023-03-01T06:54:56;18.05;;;12.15;;
24467;SDS011;12634;50.852;5.676;2023-03-01T06:57:25;19.05;;;13.82;;
24467;SDS011;12634;50.852;5.676;2023-03-01T06:59:52;21.55;;;12.77;;
24467;SDS011;12634;50.852;5.676;2023-03-01T07:02:19;18.38;;;12.20;;
24467;SDS011;12634;50.852;5.676;2023-03-01T07:04:48;16.08;;;11.30;;
24467;SDS011;12634;50.852;5.676;2023-03-01T07:07:16;19.52;;;11.15;;
24467;SDS011;12634;50.852;5.676;2023-03-01T07:09:43;18.73;;;11.27;;
24467;SDS011;12634;50.852;5.676;2023-03-01T07:12:11;15.63;;;10.15;;
24467;SDS011;12634;50.852;5.676;2023-03-01T07:14:40;11.32;;;8.40;;
24467;SDS011;12634;50.852;5.676;2023-03-01T07:17:07;11.32;;;7.97;;
24467;SDS011;12634;50.852;5.676;2023-03-01T07:19:34;14.55;;;7.60;;
24467;SDS011;12634;50.852;5.676;2023-03-01T07:22:02;14.50;;;7.57;;
24467;SDS011;12634;50.852;5.676;2023-03-01T07:24:32;11.65;;;7.90;;
24467;SDS011;12634;50.852;5.676;2023-03-01T07:26:59;12.77;;;7.57;;
24467;SDS011;12634;50.852;5.676;2023-03-01T07:29:27;12.27;;;7.43;;
24467;SDS011;12634;50.852;5.676;2023-03-01T07:31:56;12.85;;;7.57;;
24467;SDS011;12634;50.852;5.676;2023-03-01T07:34:23;19.10;;;7.88;;
24467;SDS011;12634;50.852;5.676;2023-03-01T07:36:51;17.35;;;7.78;;
24467;SDS011;12634;50.852;5.676;2023-03-01T07:39:18;12.73;;;7.03;;
24467;SDS011;12634;50.852;5.676;2023-03-01T07:41:45;16.58;;;6.90;;
24467;SDS011;12634;50.852;5.676;2023-03-01T07:44:12;11.02;;;6.93;;
24467;SDS011;12634;50.852;5.676;2023-03-01T07:46:40;11.40;;;6.97;;
24467;SDS011;12634;50.852;5.676;2023-03-01T07:49:09;10.77;;;6.90;;
24467;SDS011;12634;50.852;5.676;2023-03-01T07:51:36;11.23;;;7.13;;
24467;SDS011;12634;50.852;5.676;2023-03-01T07:54:03;9.60;;;6.30;;
24467;SDS011;12634;50.852;5.676;2023-03-01T07:56:31;10.75;;;6.80;;
24467;SDS011;12634;50.852;5.676;2023-03-01T07:58:58;13.07;;;6.95;;
24467;SDS011;12634;50.852;5.676;2023-03-01T08:01:26;14.55;;;7.38;;
24467;SDS011;12634;50.852;5.676;2023-03-01T08:03:53;13.68;;;7.28;;
24467;SDS011;12634;50.852;5.676;2023-03-01T08:06:21;11.57;;;6.88;;
24467;SDS011;12634;50.852;5.676;2023-03-01T08:08:48;10.52;;;6.55;;
24467;SDS011;12634;50.852;5.676;2023-03-01T08:11:16;15.13;;;7.40;;
24467;SDS011;12634;50.852;5.676;2023-03-01T08:13:43;11.13;;;6.80;;
24467;SDS011;12634;50.852;5.676;2023-03-01T08:16:11;9.68;;;6.97;;
24467;SDS011;12634;50.852;5.676;2023-03-01T08:18:39;16.55;;;6.85;;
24467;SDS011;12634;50.852;5.676;2023-03-01T08:21:07;14.65;;;6.63;;
24467;SDS011;12634;50.852;5.676;2023-03-01T08:23:37;14.88;;;7.82;;
24467;SDS011;12634;50.852;5.676;2023-03-01T08:26:06;9.55;;;6.80;;
24467;SDS011;12634;50.852;5.676;2023-03-01T08:28:35;13.38;;;6.90;;
24467;SDS011;12634;50.852;5.676;2023-03-01T08:31:03;10.63;;;6.93;;
24467;SDS011;12634;50.852;5.676;2023-03-01T08:33:39;10.65;;;6.20;;
24467;SDS011;12634;50.852;5.676;2023-03-01T08:36:06;12.35;;;7.40;;
24467;SDS011;12634;50.852;5.676;2023-03-01T08:38:33;11.90;;;7.07;;
24467;SDS011;12634;50.852;5.676;2023-03-01T08:41:03;12.05;;;6.82;;
24467;SDS011;12634;50.852;5.676;2023-03-01T08:43:30;11.90;;;6.55;;
24467;SDS011;12634;50.852;5.676;2023-03-01T08:45:58;12.23;;;7.00;;
24467;SDS011;12634;50.852;5.676;2023-03-01T08:48:25;10.68;;;6.53;;
24467;SDS011;12634;50.852;5.676;2023-03-01T08:50:53;10.10;;;6.63;;
24467;SDS011;12634;50.852;5.676;2023-03-01T08:53:21;10.20;;;7.03;;
24467;SDS011;12634;50.852;5.676;2023-03-01T08:55:48;11.50;;;7.03;;
24467;SDS011;12634;50.852;5.676;2023-03-01T08:58:16;11.50;;;6.35;;
24467;SDS011;12634;50.852;5.676;2023-03-01T09:00:43;11.43;;;6.32;;
24467;SDS011;12634;50.852;5.676;2023-03-01T09:03:10;15.15;;;7.20;;
24467;SDS011;12634;50.852;5.676;2023-03-01T09:05:38;9.70;;;7.13;;
24467;SDS011;12634;50.852;5.676;2023-03-01T09:08:05;12.18;;;7.13;;
24467;SDS011;12634;50.852;5.676;2023-03-01T09:10:36;13.38;;;6.80;;
24467;SDS011;12634;50.852;5.676;2023-03-01T09:13:04;11.35;;;6.50;;
24467;SDS011;12634;50.852;5.676;2023-03-01T09:15:33;11.88;;;7.03;;
24467;SDS011;12634;50.852;5.676;2023-03-01T09:18:00;13.63;;;7.28;;
24467;SDS011;12634;50.852;5.676;2023-03-01T09:20:27;13.00;;;7.20;;
24467;SDS011;12634;50.852;5.676;2023-03-01T09:22:54;10.98;;;6.85;;
24467;SDS011;12634;50.852;5.676;2023-03-01T09:25:21;11.30;;;7.65;;
24467;SDS011;12634;50.852;5.676;2023-03-01T09:27:50;11.05;;;7.10;;
24467;SDS011;12634;50.852;5.676;2023-03-01T09:30:17;10.32;;;6.72;;
24467;SDS011;12634;50.852;5.676;2023-03-01T09:32:46;12.05;;;7.70;;
24467;SDS011;12634;50.852;5.676;2023-03-01T09:35:13;12.00;;;7.75;;
24467;SDS011;12634;50.852;5.676;2023-03-01T09:37:41;10.88;;;7.28;;
24467;SDS011;12634;50.852;5.676;2023-03-01T09:40:11;11.75;;;7.47;;
24467;SDS011;12634;50.852;5.676;2023-03-01T09:42:46;10.80;;;6.95;;
24467;SDS011;12634;50.852;5.676;2023-03-01T09:45:21;10.68;;;7.43;;
24467;SDS011;12634;50.852;5.676;2023-03-01T09:47:55;16.67;;;9.02;;
24467;SDS011;12634;50.852;5.676;2023-03-01T09:50:23;11.00;;;7.93;;
24467;SDS011;12634;50.852;5.676;2023-03-01T09:52:54;11.02;;;7.38;;
24467;SDS011;12634;50.852;5.676;2023-03-01T09:55:30;11.98;;;7.88;;
24467;SDS011;12634;50.852;5.676;2023-03-01T09:58:00;12.18;;;7.90;;
24467;SDS011;12634;50.852;5.676;2023-03-01T10:00:37;11.15;;;8.00;;
24467;SDS011;12634;50.852;5.676;2023-03-01T10:03:12;11.80;;;7.90;;
24467;SDS011;12634;50.852;5.676;2023-03-01T10:08:32;11.80;;;7.75;;
24467;SDS011;12634;50.852;5.676;2023-03-01T10:11:12;11.73;;;7.88;;
24467;SDS011;12634;50.852;5.676;2023-03-01T10:13:47;10.80;;;7.70;;
24467;SDS011;12634;50.852;5.676;2023-03-01T10:16:22;12.73;;;7.93;;
24467;SDS011;12634;50.852;5.676;2023-03-01T10:18:58;10.30;;;7.57;;
24467;SDS011;12634;50.852;5.676;2023-03-01T10:21:28;9.43;;;7.50;;
24467;SDS011;12634;50.852;5.676;2023-03-01T10:23:58;11.05;;;7.95;;
24467;SDS011;12634;50.852;5.676;2023-03-01T10:26:38;13.55;;;7.93;;
24467;SDS011;12634;50.852;5.676;2023-03-01T10:29:17;12.60;;;7.70;;
24467;SDS011;12634;50.852;5.676;2023-03-01T10:31:50;13.30;;;8.57;;
24467;SDS011;12634;50.852;5.676;2023-03-01T10:34:21;12.50;;;8.32;;
24467;SDS011;12634;50.852;5.676;2023-03-01T10:39:23;11.95;;;7.78;;
24467;SDS011;12634;50.852;5.676;2023-03-01T10:41:53;12.82;;;8.18;;
24467;SDS011;12634;50.852;5.676;2023-03-01T10:44:36;11.68;;;7.97;;
24467;SDS011;12634;50.852;5.676;2023-03-01T10:47:07;13.07;;;8.75;;
24467;SDS011;12634;50.852;5.676;2023-03-01T10:49:57;12.15;;;8.20;;
24467;SDS011;12634;50.852;5.676;2023-03-01T10:52:27;12.90;;;7.65;;
24467;SDS011;12634;50.852;5.676;2023-03-01T10:54:59;15.77;;;9.43;;
24467;SDS011;12634;50.852;5.676;2023-03-01T10:57:31;13.05;;;8.82;;
24467;SDS011;12634;50.852;5.676;2023-03-01T11:00:16;11.70;;;8.25;;
24467;SDS011;12634;50.852;5.676;2023-03-01T11:02:47;10.40;;;7.70;;
24467;SDS011;12634;50.852;5.676;2023-03-01T11:05:21;11.10;;;8.80;;
24467;SDS011;12634;50.852;5.676;2023-03-01T11:07:50;11.88;;;8.15;;
24467;SDS011;12634;50.852;5.676;2023-03-01T11:10:19;13.20;;;8.63;;
24467;SDS011;12634;50.852;5.676;2023-03-01T11:12:48;12.10;;;8.35;;
24467;SDS011;12634;50.852;5.676;2023-03-01T11:15:20;10.55;;;7.97;;
24467;SDS011;12634;50.852;5.676;2023-03-01T11:17:52;13.48;;;8.18;;
24467;SDS011;12634;50.852;5.676;2023-03-01T11:20:27;17.65;;;8.40;;
24467;SDS011;12634;50.852;5.676;2023-03-01T11:22:58;14.07;;;8.23;;
24467;SDS011;12634;50.852;5.676;2023-03-01T11:25:30;13.93;;;8.27;;
24467;SDS011;12634;50.852;5.676;2023-03-01T11:28:03;13.07;;;8.10;;
24467;SDS011;12634;50.852;5.676;2023-03-01T11:30:33;14.27;;;8.52;;
24467;SDS011;12634;50.852;5.676;2023-03-01T11:33:08;14.65;;;8.25;;
24467;SDS011;12634;50.852;5.676;2023-03-01T11:35:45;11.48;;;7.47;;
24467;SDS011;12634;50.852;5.676;2023-03-01T11:38:20;12.73;;;7.82;;
24467;SDS011;12634;50.852;5.676;2023-03-01T11:40:50;10.75;;;7.50;;
24467;SDS011;12634;50.852;5.676;2023-03-01T11:43:26;11.55;;;8.35;;
24467;SDS011;12634;50.852;5.676;2023-03-01T11:49:06;14.50;;;8.40;;
24467;SDS011;12634;50.852;5.676;2023-03-01T11:51:55;12.65;;;8.23;;
24467;SDS011;12634;50.852;5.676;2023-03-01T11:54:30;12.68;;;7.32;;
24467;SDS011;12634;50.852;5.676;2023-03-01T11:57:10;11.57;;;8.10;;
24467;SDS011;12634;50.852;5.676;2023-03-01T12:02:48;12.00;;;8.32;;
24467;SDS011;12634;50.852;5.676;2023-03-01T12:05:50;11.80;;;7.28;;
24467;SDS011;12634;50.852;5.676;2023-03-01T12:08:31;10.18;;;7.15;;
24467;SDS011;12634;50.852;5.676;2023-03-01T12:11:06;10.75;;;7.80;;
24467;SDS011;12634;50.852;5.676;2023-03-01T12:17:05;11.45;;;8.05;;
24467;SDS011;12634;50.852;5.676;2023-03-01T12:19:45;13.02;;;8.13;;
24467;SDS011;12634;50.852;5.676;2023-03-01T12:22:29;12.77;;;7.15;;
24467;SDS011;12634;50.852;5.676;2023-03-01T12:25:02;10.57;;;7.68;;
24467;SDS011;12634;50.852;5.676;2023-03-01T12:27:56;11.48;;;7.40;;
24467;SDS011;12634;50.852;5.676;2023-03-01T12:30:43;13.98;;;7.53;;
24467;SDS011;12634;50.852;5.676;2023-03-01T12:33:22;11.38;;;7.70;;
24467;SDS011;12634;50.852;5.676;2023-03-01T12:36:10;13.63;;;8.98;;
24467;SDS011;12634;50.852;5.676;2023-03-01T12:38:49;11.70;;;8.27;;
24467;SDS011;12634;50.852;5.676;2023-03-01T12:44:29;12.05;;;8.48;;
24467;SDS011;12634;50.852;5.676;2023-03-01T12:47:09;11.45;;;8.23;;
24467;SDS011;12634;50.852;5.676;2023-03-01T12:49:44;12.70;;;8.02;;
24467;SDS011;12634;50.852;5.676;2023-03-01T12:52:15;12.07;;;8.13;;
24467;SDS011;12634;50.852;5.676;2023-03-01T12:54:46;12.00;;;8.73;;
24467;SDS011;12634;50.852;5.676;2023-03-01T12:57:17;12.10;;;8.52;;
24467;SDS011;12634;50.852;5.676;2023-03-01T12:59:54;13.13;;;9.48;;
24467;SDS011;12634;50.852;5.676;2023-03-01T13:02:35;15.02;;;7.80;;
24467;SDS011;12634;50.852;5.676;2023-03-01T13:05:16;11.10;;;8.03;;
24467;SDS011;12634;50.852;5.676;2023-03-01T13:07:53;11.60;;;8.43;;
24467;SDS011;12634;50.852;5.676;2023-03-01T13:10:30;11.05;;;7.72;;
24467;SDS011;12634;50.852;5.676;2023-03-01T13:13:08;11.38;;;7.90;;
24467;SDS011;12634;50.852;5.676;2023-03-01T13:15:40;13.32;;;8.45;;
24467;SDS011;12634;50.852;5.676;2023-03-01T13:20:58;12.75;;;7.57;;
24467;SDS011;12634;50.852;5.676;2023-03-01T13:23:31;13.80;;;9.65;;
24467;SDS011;12634;50.852;5.676;2023-03-01T13:26:06;11.70;;;7.70;;
24467;SDS011;12634;50.852;5.676;2023-03-01T13:28:41;12.20;;;7.88;;
24467;SDS011;12634;50.852;5.676;2023-03-01T13:34:48;9.90;;;7.40;;
24467;SDS011;12634;50.852;5.676;2023-03-01T13:37:23;12.13;;;7.80;;
24467;SDS011;12634;50.852;5.676;2023-03-01T13:39:56;12.82;;;8.02;;
24467;SDS011;12634;50.852;5.676;2023-03-01T13:42:31;11.60;;;8.65;;
24467;SDS011;12634;50.852;5.676;2023-03-01T13:45:04;10.50;;;8.30;;
24467;SDS011;12634;50.852;5.676;2023-03-01T13:47:56;12.02;;;7.85;;
24467;SDS011;12634;50.852;5.676;2023-03-01T13:50:25;9.77;;;7.32;;
24467;SDS011;12634;50.852;5.676;2023-03-01T13:52:59;10.63;;;7.40;;
24467;SDS011;12634;50.852;5.676;2023-03-01T13:55:31;10.75;;;7.55;;
24467;SDS011;12634;50.852;5.676;2023-03-01T13:58:05;11.88;;;7.53;;
24467;SDS011;12634;50.852;5.676;2023-03-01T14:00:44;11.20;;;7.60;;
24467;SDS011;12634;50.852;5.676;2023-03-01T14:03:12;8.63;;;7.53;;
24467;SDS011;12634;50.852;5.676;2023-03-01T14:05:42;12.65;;;7.78;;
24467;SDS011;12634;50.852;5.676;2023-03-01T14:08:21;10.60;;;7.45;;
24467;SDS011;12634;50.852;5.676;2023-03-01T14:10:54;11.88;;;7.10;;
24467;SDS011;12634;50.852;5.676;2023-03-01T14:13:48;12.48;;;7.80;;
24467;SDS011;12634;50.852;5.676;2023-03-01T14:16:31;14.30;;;8.23;;
24467;SDS011;12634;50.852;5.676;2023-03-01T14:19:13;8.85;;;6.80;;
24467;SDS011;12634;50.852;5.676;2023-03-01T14:21:45;10.45;;;7.82;;
24467;SDS011;12634;50.852;5.676;2023-03-01T14:24:18;11.88;;;8.15;;
24467;SDS011;12634;50.852;5.676;2023-03-01T14:26:48;9.90;;;7.80;;
24467;SDS011;12634;50.852;5.676;2023-03-01T14:29:26;9.13;;;7.60;;
24467;SDS011;12634;50.852;5.676;2023-03-01T14:31:55;9.60;;;7.53;;
24467;SDS011;12634;50.852;5.676;2023-03-01T14:34:36;12.20;;;7.70;;
24467;SDS011;12634;50.852;5.676;2023-03-01T14:37:17;13.95;;;7.53;;
24467;SDS011;12634;50.852;5.676;2023-03-01T14:39:46;10.75;;;7.97;;
24467;SDS011;12634;50.852;5.676;2023-03-01T14:42:13;10.65;;;8.00;;
24467;SDS011;12634;50.852;5.676;2023-03-01T14:44:42;9.63;;;7.00;;
24467;SDS011;12634;50.852;5.676;2023-03-01T14:47:14;11.05;;;7.78;;
24467;SDS011;12634;50.852;5.676;2023-03-01T14:49:48;10.35;;;7.15;;
24467;SDS011;12634;50.852;5.676;2023-03-01T14:52:20;10.63;;;6.97;;
24467;SDS011;12634;50.852;5.676;2023-03-01T14:54:52;10.52;;;6.35;;
24467;SDS011;12634;50.852;5.676;2023-03-01T14:57:22;9.95;;;6.97;;
24467;SDS011;12634;50.852;5.676;2023-03-01T14:59:51;9.52;;;6.40;;
24467;SDS011;12634;50.852;5.676;2023-03-01T15:02:23;10.05;;;7.13;;
24467;SDS011;12634;50.852;5.676;2023-03-01T15:04:52;9.75;;;6.57;;
24467;SDS011;12634;50.852;5.676;2023-03-01T15:07:21;8.40;;;6.25;;
24467;SDS011;12634;50.852;5.676;2023-03-01T15:09:52;10.68;;;6.90;;
24467;SDS011;12634;50.852;5.676;2023-03-01T15:12:34;8.95;;;6.43;;
24467;SDS011;12634;50.852;5.676;2023-03-01T15:17:48;8.77;;;5.80;;
24467;SDS011;12634;50.852;5.676;2023-03-01T15:22:50;10.85;;;5.97;;
24467;SDS011;12634;50.852;5.676;2023-03-01T15:25:18;9.77;;;6.15;;
24467;SDS011;12634;50.852;5.676;2023-03-01T15:27:47;8.43;;;5.70;;
24467;SDS011;12634;50.852;5.676;2023-03-01T15:30:17;9.75;;;5.88;;